createdAt,value
2022-09-22T00:00:55.714Z,9.70
2022-09-22T00:03:22.747Z,9.60
2022-09-22T00:05:49.502Z,9.60
2022-09-22T00:08:16.586Z,9.60
2022-09-22T00:10:43.394Z,9.60
2022-09-22T00:13:10.158Z,9.50
2022-09-22T00:15:37.062Z,9.60
2022-09-22T00:18:03.895Z,9.50
2022-09-22T00:20:30.676Z,9.40
2022-09-22T00:22:57.651Z,9.40
2022-09-22T00:25:24.383Z,9.40
2022-09-22T00:27:54.420Z,9.50
2022-09-22T00:30:21.722Z,9.50
2022-09-22T00:32:48.674Z,9.40
2022-09-22T00:35:15.543Z,9.50
2022-09-22T00:37:42.375Z,9.50
2022-09-22T00:40:10.272Z,9.60
2022-09-22T00:42:37.120Z,9.60
2022-09-22T00:45:04.239Z,9.50
2022-09-22T00:47:39.147Z,9.50
2022-09-22T00:50:17.788Z,9.40
2022-09-22T00:52:50.342Z,9.40
2022-09-22T00:55:23.402Z,9.30
2022-09-22T00:57:50.631Z,9.30
2022-09-22T01:00:17.904Z,9.30
2022-09-22T01:02:49.712Z,9.30
2022-09-22T01:05:16.624Z,9.20
2022-09-22T01:07:43.997Z,9.30
2022-09-22T01:10:11.392Z,9.30
2022-09-22T01:12:41.239Z,9.40
2022-09-22T01:15:31.658Z,9.50
2022-09-22T01:18:17.313Z,9.50
2022-09-22T01:21:04.777Z,9.50
2022-09-22T01:23:47.319Z,9.40
2022-09-22T01:26:20.414Z,9.40
2022-09-22T01:28:54.137Z,9.30
2022-09-22T01:31:26.758Z,9.20
2022-09-22T01:34:04.487Z,9.10
2022-09-22T01:36:40.492Z,9.00
2022-09-22T01:39:07.374Z,9.10
2022-09-22T01:41:37.347Z,9.00
2022-09-22T01:44:07.562Z,8.90
2022-09-22T01:46:36.704Z,8.90
2022-09-22T01:49:07.792Z,8.90
2022-09-22T01:51:39.742Z,8.90
2022-09-22T01:54:20.660Z,8.90
2022-09-22T01:56:49.553Z,8.90
2022-09-22T01:59:17.320Z,8.90
2022-09-22T02:01:46.627Z,8.90
2022-09-22T02:04:29.708Z,8.90
2022-09-22T02:07:05.206Z,9.00
2022-09-22T02:09:33.667Z,9.00
2022-09-22T02:12:01.254Z,9.00
2022-09-22T02:14:28.495Z,9.00
2022-09-22T02:16:55.892Z,9.00
2022-09-22T02:19:30.969Z,9.00
2022-09-22T02:21:58.566Z,9.00
2022-09-22T02:24:31.557Z,9.00
2022-09-22T02:26:59.289Z,9.10
2022-09-22T02:29:29.517Z,9.10
2022-09-22T02:31:57.199Z,9.10
2022-09-22T02:34:24.375Z,9.00
2022-09-22T02:36:56.316Z,8.90
2022-09-22T02:39:34.408Z,8.80
2022-09-22T02:42:07.792Z,8.80
2022-09-22T02:44:36.851Z,8.70
2022-09-22T02:47:10.027Z,8.80
2022-09-22T02:49:37.080Z,8.80
2022-09-22T02:52:08.417Z,8.80
2022-09-22T02:54:35.296Z,8.80
2022-09-22T02:57:02.100Z,8.70
2022-09-22T02:59:28.936Z,8.70
2022-09-22T03:01:55.906Z,8.60
2022-09-22T03:04:23.084Z,8.60
2022-09-22T03:06:49.913Z,8.60
2022-09-22T03:09:18.088Z,8.50
2022-09-22T03:11:45.009Z,8.40
2022-09-22T03:14:11.951Z,8.50
2022-09-22T03:16:38.688Z,8.50
2022-09-22T03:19:05.646Z,8.40
2022-09-22T03:21:32.474Z,8.50
2022-09-22T03:23:59.420Z,8.50
2022-09-22T03:26:26.303Z,8.50
2022-09-22T03:28:53.458Z,8.50
2022-09-22T03:31:20.572Z,8.40
2022-09-22T03:33:51.997Z,8.40
2022-09-22T03:36:19.615Z,8.30
2022-09-22T03:38:46.517Z,8.30
2022-09-22T03:41:13.319Z,8.30
2022-09-22T03:43:40.249Z,8.40
2022-09-22T03:46:07.470Z,8.30
2022-09-22T03:48:34.420Z,8.30
2022-09-22T03:51:01.213Z,8.30
2022-09-22T03:53:28.257Z,8.50
2022-09-22T03:56:04.684Z,8.60
2022-09-22T03:58:31.533Z,8.80
2022-09-22T04:00:58.446Z,8.90
2022-09-22T04:03:25.333Z,9.00
2022-09-22T04:05:52.194Z,9.00
2022-09-22T04:08:18.982Z,8.90
2022-09-22T04:10:45.809Z,8.70
2022-09-22T04:13:13.436Z,8.80
2022-09-22T04:15:40.564Z,8.70
2022-09-22T04:18:07.384Z,8.70
2022-09-22T04:20:34.384Z,8.70
2022-09-22T04:23:01.261Z,8.60
2022-09-22T04:25:28.050Z,8.60
2022-09-22T04:27:55.030Z,8.40
2022-09-22T04:30:22.002Z,8.50
2022-09-22T04:32:48.728Z,8.40
2022-09-22T04:35:15.622Z,8.40
2022-09-22T04:37:42.728Z,8.30
2022-09-22T04:40:12.255Z,8.20
2022-09-22T04:42:39.282Z,8.20
2022-09-22T04:45:07.034Z,8.30
2022-09-22T04:47:33.908Z,8.30
2022-09-22T04:50:00.849Z,8.20
2022-09-22T04:52:27.736Z,8.30
2022-09-22T04:54:54.478Z,8.30
2022-09-22T04:57:21.282Z,8.40
2022-09-22T04:59:48.039Z,8.30
2022-09-22T05:02:14.833Z,8.30
2022-09-22T05:04:41.741Z,8.30
2022-09-22T05:07:08.521Z,8.20
2022-09-22T05:09:35.547Z,8.20
2022-09-22T05:12:02.451Z,8.30
2022-09-22T05:14:29.691Z,8.40
2022-09-22T05:16:56.574Z,8.40
2022-09-22T05:19:23.512Z,8.30
2022-09-22T05:21:50.889Z,8.30
2022-09-22T05:24:17.684Z,8.20
2022-09-22T05:26:44.485Z,8.20
2022-09-22T05:29:11.596Z,8.30
2022-09-22T05:31:38.447Z,8.30
2022-09-22T05:34:05.336Z,8.30
2022-09-22T05:36:32.050Z,8.30
2022-09-22T05:38:58.864Z,8.20
2022-09-22T05:41:25.621Z,8.20
2022-09-22T05:43:52.453Z,8.20
2022-09-22T05:46:19.268Z,8.20
2022-09-22T05:48:46.125Z,8.30
2022-09-22T05:51:12.892Z,8.20
2022-09-22T05:53:39.735Z,8.30
2022-09-22T05:56:06.525Z,8.20
2022-09-22T05:58:33.322Z,8.30
2022-09-22T06:01:00.225Z,8.30
2022-09-22T06:03:27.161Z,8.30
2022-09-22T06:05:53.950Z,8.30
2022-09-22T06:08:20.763Z,8.30
2022-09-22T06:10:51.112Z,8.40
2022-09-22T06:13:17.975Z,8.40
2022-09-22T06:15:48.680Z,8.40
2022-09-22T06:18:23.420Z,8.40
2022-09-22T06:20:51.282Z,8.40
2022-09-22T06:23:18.058Z,8.30
2022-09-22T06:25:44.779Z,8.40
2022-09-22T06:28:14.197Z,8.50
2022-09-22T06:30:41.400Z,8.60
2022-09-22T06:33:08.875Z,8.80
2022-09-22T06:35:37.831Z,8.90
2022-09-22T06:38:06.440Z,9.00
2022-09-22T06:40:34.269Z,9.10
2022-09-22T06:43:08.516Z,9.20
2022-09-22T06:45:35.420Z,9.10
2022-09-22T06:48:07.530Z,9.20
2022-09-22T06:50:36.607Z,9.20
2022-09-22T06:53:05.145Z,9.20
2022-09-22T06:55:31.868Z,9.20
2022-09-22T06:57:59.576Z,9.30
2022-09-22T07:00:31.316Z,9.40
2022-09-22T07:03:06.266Z,9.40
2022-09-22T07:05:33.501Z,9.60
2022-09-22T07:08:00.501Z,9.70
2022-09-22T07:10:27.602Z,9.60
2022-09-22T07:12:54.394Z,9.70
2022-09-22T07:15:21.210Z,9.80
2022-09-22T07:17:51.490Z,9.80
2022-09-22T07:20:18.542Z,9.80
2022-09-22T07:22:45.576Z,9.90
2022-09-22T07:25:13.277Z,9.90
2022-09-22T07:27:40.057Z,10.00
2022-09-22T07:30:09.207Z,10.00
2022-09-22T07:32:36.029Z,10.10
2022-09-22T07:35:02.807Z,10.20
2022-09-22T07:37:33.223Z,10.20
2022-09-22T07:40:01.008Z,10.30
2022-09-22T07:42:27.837Z,10.30
2022-09-22T07:45:12.998Z,10.40
2022-09-22T07:47:58.716Z,10.40
2022-09-22T07:50:25.548Z,10.30
2022-09-22T07:52:53.317Z,10.40
2022-09-22T07:55:25.171Z,10.50
2022-09-22T07:57:55.927Z,10.50
2022-09-22T08:00:23.911Z,10.50
2022-09-22T08:02:55.259Z,10.50
2022-09-22T08:05:26.433Z,10.50
2022-09-22T08:07:57.177Z,10.60
2022-09-22T08:10:24.549Z,10.60
2022-09-22T08:12:51.912Z,10.60
2022-09-22T08:15:26.669Z,10.70
2022-09-22T08:17:58.297Z,10.80
2022-09-22T08:20:29.170Z,10.80
2022-09-22T08:23:03.107Z,10.90
2022-09-22T08:25:30.580Z,10.90
2022-09-22T08:27:57.476Z,10.80
2022-09-22T08:30:24.343Z,10.90
2022-09-22T08:32:51.192Z,10.90
2022-09-22T08:35:18.528Z,10.90
2022-09-22T08:37:45.744Z,11.00
2022-09-22T08:40:21.174Z,11.00
2022-09-22T08:42:48.152Z,11.10
2022-09-22T08:45:24.837Z,11.10
2022-09-22T08:48:16.338Z,11.20
2022-09-22T08:51:09.492Z,11.20
2022-09-22T08:53:43.535Z,11.30
2022-09-22T08:56:16.868Z,11.30
2022-09-22T08:58:55.288Z,11.30
2022-09-22T09:01:30.944Z,11.40
2022-09-22T09:04:14.121Z,11.40
2022-09-22T09:06:40.895Z,11.50
2022-09-22T09:09:20.627Z,11.50
2022-09-22T09:11:57.943Z,11.60
2022-09-22T09:14:30.563Z,11.60
2022-09-22T09:16:59.930Z,11.70
2022-09-22T09:19:29.652Z,11.70
2022-09-22T09:22:00.300Z,11.80
2022-09-22T09:27:25.326Z,11.80
2022-09-22T09:29:57.274Z,11.90
2022-09-22T09:32:33.228Z,11.90
2022-09-22T09:35:01.914Z,11.90
2022-09-22T09:37:29.594Z,12.00
2022-09-22T09:39:56.994Z,12.00
2022-09-22T09:42:25.585Z,12.00
2022-09-22T09:44:53.803Z,12.00
2022-09-22T09:47:47.700Z,12.10
2022-09-22T09:50:15.182Z,12.10
2022-09-22T09:52:42.339Z,12.20
2022-09-22T09:55:26.757Z,12.20
2022-09-22T09:58:02.828Z,12.30
2022-09-22T10:00:32.541Z,12.30
2022-09-22T10:03:02.582Z,12.40
2022-09-22T10:05:30.038Z,12.50
2022-09-22T10:07:58.320Z,12.50
2022-09-22T10:10:34.542Z,12.50
2022-09-22T10:13:04.271Z,12.50
2022-09-22T10:15:41.140Z,12.60
2022-09-22T10:18:28.758Z,12.60
2022-09-22T10:21:01.699Z,12.60
2022-09-22T10:23:28.880Z,12.70
2022-09-22T10:26:13.774Z,12.70
2022-09-22T10:28:40.595Z,12.80
2022-09-22T10:31:18.021Z,12.80
2022-09-22T10:33:55.627Z,12.80
2022-09-22T10:36:25.984Z,12.90
2022-09-22T10:38:57.394Z,12.90
2022-09-22T10:41:30.846Z,12.90
2022-09-22T10:44:03.137Z,13.00
2022-09-22T10:46:38.282Z,13.10
2022-09-22T10:49:12.532Z,13.10
2022-09-22T10:51:46.426Z,13.10
2022-09-22T10:54:40.395Z,13.10
2022-09-22T10:57:16.104Z,13.20
2022-09-22T10:59:49.555Z,13.20
2022-09-22T11:02:19.155Z,13.30
2022-09-22T11:04:57.863Z,13.30
2022-09-22T11:08:06.932Z,13.30
2022-09-22T11:10:52.125Z,13.30
2022-09-22T11:13:37.363Z,13.40
2022-09-22T11:16:10.997Z,13.40
2022-09-22T11:18:39.812Z,13.40
2022-09-22T11:21:13.008Z,13.40
2022-09-22T11:23:50.018Z,13.40
2022-09-22T11:26:30.108Z,13.50
2022-09-22T11:29:12.047Z,13.50
2022-09-22T11:31:50.933Z,13.60
2022-09-22T11:34:18.478Z,13.60
2022-09-22T11:37:23.890Z,13.70
2022-09-22T11:39:53.825Z,13.90
2022-09-22T11:42:25.827Z,13.80
2022-09-22T11:45:06.742Z,13.80
2022-09-22T11:47:45.701Z,13.80
2022-09-22T11:50:12.541Z,13.90
2022-09-22T11:52:59.048Z,13.90
2022-09-22T11:55:34.210Z,13.80
2022-09-22T11:58:04.650Z,13.90
2022-09-22T12:00:37.220Z,13.80
2022-09-22T12:03:16.900Z,13.80
2022-09-22T12:05:47.455Z,13.80
2022-09-22T12:08:23.146Z,13.90
2022-09-22T12:10:51.373Z,13.90
2022-09-22T12:13:22.474Z,13.90
2022-09-22T12:15:52.477Z,14.00
2022-09-22T12:18:23.037Z,14.00
2022-09-22T12:20:50.139Z,14.10
2022-09-22T12:23:27.458Z,14.10
2022-09-22T12:25:55.635Z,14.10
2022-09-22T12:28:26.548Z,14.20
2022-09-22T12:31:07.341Z,14.20
2022-09-22T12:33:35.108Z,14.20
2022-09-22T12:36:02.368Z,14.30
2022-09-22T12:38:31.831Z,14.30
2022-09-22T12:41:03.013Z,14.40
2022-09-22T12:43:32.473Z,14.40
2022-09-22T12:46:03.316Z,14.50
2022-09-22T12:48:34.125Z,14.50
2022-09-22T12:51:25.039Z,14.60
2022-09-22T12:54:13.003Z,14.60
2022-09-22T12:56:46.862Z,14.70
2022-09-22T12:59:33.378Z,14.70
2022-09-22T13:02:29.787Z,14.70
2022-09-22T13:05:01.318Z,14.70
2022-09-22T13:07:31.343Z,14.60
2022-09-22T13:10:17.984Z,14.70
2022-09-22T13:13:03.620Z,14.70
2022-09-22T13:15:33.488Z,14.60
2022-09-22T13:18:00.440Z,14.70
2022-09-22T13:20:31.473Z,14.70
2022-09-22T13:23:12.080Z,14.70
2022-09-22T13:25:40.217Z,14.70
2022-09-22T13:28:10.643Z,14.70
2022-09-22T13:30:38.107Z,14.70
2022-09-22T13:33:05.772Z,14.60
2022-09-22T13:35:38.135Z,14.70
2022-09-22T13:38:05.704Z,14.70
2022-09-22T13:40:35.113Z,14.60
2022-09-22T13:43:08.707Z,14.70
2022-09-22T13:45:38.664Z,14.60
2022-09-22T13:48:08.855Z,14.60
2022-09-22T13:50:48.694Z,14.60
2022-09-22T13:53:18.186Z,14.70
2022-09-22T13:55:51.295Z,14.80
2022-09-22T13:58:24.777Z,14.80
2022-09-22T14:01:13.062Z,14.80
2022-09-22T14:03:40.317Z,14.80
2022-09-22T14:06:12.777Z,14.90
2022-09-22T14:08:40.183Z,15.00
2022-09-22T14:11:08.443Z,15.00
2022-09-22T14:13:42.526Z,15.00
2022-09-22T14:16:11.997Z,15.00
2022-09-22T14:18:46.554Z,15.00
2022-09-22T14:21:15.136Z,15.00
2022-09-22T14:23:43.484Z,14.90
2022-09-22T14:26:37.556Z,14.90
2022-09-22T14:29:14.774Z,14.90
2022-09-22T14:31:43.291Z,14.90
2022-09-22T14:34:10.213Z,14.90
2022-09-22T14:36:37.285Z,14.90
2022-09-22T14:39:10.012Z,14.90
2022-09-22T14:41:37.619Z,14.90
2022-09-22T14:44:26.726Z,14.90
2022-09-22T14:46:56.323Z,14.90
2022-09-22T14:49:43.078Z,14.90
2022-09-22T14:52:23.824Z,14.90
2022-09-22T14:55:00.198Z,14.90
2022-09-22T14:57:27.319Z,14.90
2022-09-22T15:00:14.598Z,14.90
2022-09-22T15:02:44.533Z,14.90
2022-09-22T15:05:25.428Z,14.90
2022-09-22T15:07:55.622Z,14.90
2022-09-22T15:10:24.898Z,14.90
2022-09-22T15:12:52.047Z,14.90
2022-09-22T15:15:31.696Z,14.90
2022-09-22T15:18:19.527Z,14.90
2022-09-22T15:20:48.649Z,15.00
2022-09-22T15:23:21.575Z,15.00
2022-09-22T15:25:49.860Z,14.90
2022-09-22T15:28:18.488Z,14.90
2022-09-22T15:30:47.568Z,14.90
2022-09-22T15:33:15.500Z,14.90
2022-09-22T15:35:43.344Z,14.90
2022-09-22T15:38:15.083Z,14.90
2022-09-22T15:40:41.960Z,15.00
2022-09-22T15:43:13.394Z,14.90
2022-09-22T15:45:47.815Z,14.90
2022-09-22T15:48:22.813Z,14.90
2022-09-22T15:50:49.790Z,14.90
2022-09-22T15:53:16.638Z,14.80
2022-09-22T15:55:43.523Z,14.70
2022-09-22T15:58:12.847Z,14.80
2022-09-22T16:00:39.926Z,14.70
2022-09-22T16:03:14.387Z,14.70
2022-09-22T16:05:41.453Z,14.60
2022-09-22T16:08:09.091Z,14.50
2022-09-22T16:10:35.995Z,14.50
2022-09-22T16:13:03.712Z,14.50
2022-09-22T16:15:32.946Z,14.50
2022-09-22T16:17:59.694Z,14.50
2022-09-22T16:20:26.559Z,14.50
2022-09-22T16:22:53.315Z,14.50
2022-09-22T16:25:21.895Z,14.50
2022-09-22T16:27:49.184Z,14.50
2022-09-22T16:30:16.833Z,14.40
2022-09-22T16:32:43.581Z,14.40
2022-09-22T16:35:10.389Z,14.50
2022-09-22T16:37:37.194Z,14.50
2022-09-22T16:40:04.257Z,14.50
2022-09-22T16:42:31.087Z,14.50
2022-09-22T16:44:57.892Z,14.50
2022-09-22T16:47:24.638Z,14.50
2022-09-22T16:49:51.666Z,14.60
2022-09-22T16:52:19.090Z,14.60
2022-09-22T16:54:46.297Z,14.60
2022-09-22T16:57:13.261Z,14.50
2022-09-22T16:59:40.103Z,14.60
2022-09-22T17:02:06.949Z,14.50
2022-09-22T17:04:33.807Z,14.50
2022-09-22T17:07:01.278Z,14.50
2022-09-22T17:09:28.268Z,14.40
2022-09-22T17:11:55.090Z,14.40
2022-09-22T17:14:22.150Z,14.40
2022-09-22T17:16:52.051Z,14.50
2022-09-22T17:19:20.110Z,14.40
2022-09-22T17:21:48.205Z,14.40
2022-09-22T17:24:15.337Z,14.50
2022-09-22T17:26:47.877Z,14.40
2022-09-22T17:29:16.073Z,14.40
2022-09-22T17:31:44.418Z,14.40
2022-09-22T17:34:13.191Z,14.40
2022-09-22T17:36:40.831Z,14.40
2022-09-22T17:39:10.408Z,14.40
2022-09-22T17:41:45.653Z,14.40
2022-09-22T17:44:13.095Z,14.30
2022-09-22T17:46:59.834Z,14.30
2022-09-22T17:49:45.418Z,14.30
2022-09-22T17:52:29.661Z,14.30
2022-09-22T17:55:11.250Z,14.30
2022-09-22T17:57:45.509Z,14.20
2022-09-22T18:00:13.647Z,14.30
2022-09-22T18:02:42.132Z,14.30
2022-09-22T18:05:10.891Z,14.30
2022-09-22T18:07:40.117Z,14.20
2022-09-22T18:10:08.110Z,14.30
2022-09-22T18:12:35.847Z,14.30
2022-09-22T18:15:03.860Z,14.30
2022-09-22T18:17:43.107Z,14.20
2022-09-22T18:20:11.567Z,14.10
2022-09-22T18:22:40.238Z,14.10
2022-09-22T18:25:09.397Z,14.00
2022-09-22T18:27:37.383Z,14.00
2022-09-22T18:30:05.504Z,13.90
2022-09-22T18:32:33.362Z,13.90
2022-09-22T18:35:00.370Z,13.80
2022-09-22T18:37:27.175Z,13.70
2022-09-22T18:39:54.638Z,13.60
2022-09-22T18:42:24.418Z,13.50
2022-09-22T18:44:51.806Z,13.50
2022-09-22T18:47:20.450Z,13.50
2022-09-22T18:49:49.158Z,13.40
2022-09-22T18:52:23.028Z,13.40
2022-09-22T18:54:54.052Z,13.30
2022-09-22T18:57:22.759Z,13.30
2022-09-22T18:59:51.321Z,13.20
2022-09-22T19:02:21.524Z,13.20
2022-09-22T19:04:48.778Z,13.10
2022-09-22T19:07:38.959Z,13.00
2022-09-22T19:10:09.220Z,13.00
2022-09-22T19:12:39.369Z,13.00
2022-09-22T19:15:13.626Z,13.10
2022-09-22T19:17:43.933Z,13.00
2022-09-22T19:20:15.868Z,12.90
2022-09-22T19:22:43.704Z,12.90
2022-09-22T19:25:11.007Z,12.80
2022-09-22T19:27:39.825Z,12.90
2022-09-22T19:30:07.766Z,12.80
2022-09-22T19:32:34.687Z,12.90
2022-09-22T19:35:02.175Z,12.80
2022-09-22T19:37:29.484Z,12.80
2022-09-22T19:39:57.069Z,12.80
2022-09-22T19:42:23.932Z,12.80
2022-09-22T19:44:51.207Z,12.80
2022-09-22T19:47:19.137Z,12.80
2022-09-22T19:49:46.171Z,12.70
2022-09-22T19:52:13.433Z,12.70
2022-09-22T19:54:40.972Z,12.70
2022-09-22T19:57:08.568Z,12.70
2022-09-22T19:59:35.949Z,12.70
2022-09-22T20:02:03.985Z,12.70
2022-09-22T20:04:34.376Z,12.70
2022-09-22T20:07:01.702Z,12.60
2022-09-22T20:09:30.501Z,12.60
2022-09-22T20:11:57.684Z,12.60
2022-09-22T20:14:26.779Z,12.50
2022-09-22T20:17:09.644Z,12.40
2022-09-22T20:19:41.249Z,12.40
2022-09-22T20:22:19.158Z,12.30
2022-09-22T20:24:57.451Z,12.20
2022-09-22T20:27:26.013Z,12.10
2022-09-22T20:29:56.960Z,12.10
2022-09-22T20:32:25.280Z,11.90
2022-09-22T20:34:52.760Z,12.00
2022-09-22T20:37:19.847Z,11.90
2022-09-22T20:39:47.001Z,11.90
2022-09-22T20:42:14.178Z,11.80
2022-09-22T20:44:42.257Z,11.80
2022-09-22T20:47:13.394Z,11.80
2022-09-22T20:49:42.234Z,11.90
2022-09-22T20:52:16.223Z,11.80
2022-09-22T20:54:43.884Z,11.80
2022-09-22T20:57:11.409Z,11.80
2022-09-22T21:01:17.444Z,12.40
2022-09-22T21:03:44.758Z,11.70
2022-09-22T21:06:13.103Z,11.70
2022-09-22T21:09:01.015Z,11.70
2022-09-22T21:11:29.032Z,11.70
2022-09-22T21:14:03.733Z,11.60
2022-09-22T21:16:32.226Z,11.60
2022-09-22T21:19:02.299Z,11.70
2022-09-22T21:21:34.727Z,11.70
2022-09-22T21:24:02.041Z,11.80
2022-09-22T21:26:30.322Z,11.80
2022-09-22T21:28:59.481Z,11.80
2022-09-22T21:31:27.216Z,11.80
2022-09-22T21:33:54.363Z,11.80
2022-09-22T21:36:23.462Z,11.80
2022-09-22T21:38:56.284Z,11.80
2022-09-22T21:41:26.187Z,11.70
2022-09-22T21:43:53.693Z,11.70
2022-09-22T21:46:26.387Z,11.60
2022-09-22T21:49:01.765Z,11.40
2022-09-22T21:51:32.194Z,11.40
2022-09-22T21:53:59.024Z,11.30
2022-09-22T21:56:26.096Z,11.30
2022-09-22T21:58:55.177Z,11.30
2022-09-22T22:01:28.196Z,11.20
2022-09-22T22:03:56.942Z,11.10
2022-09-22T22:06:29.588Z,11.00
2022-09-22T22:09:02.461Z,11.00
2022-09-22T22:11:33.683Z,11.00
2022-09-22T22:14:02.761Z,10.90
2022-09-22T22:16:32.555Z,10.90
2022-09-22T22:18:59.625Z,10.90
2022-09-22T22:21:32.133Z,10.80
2022-09-22T22:24:20.187Z,10.80
2022-09-22T22:26:54.742Z,10.80
2022-09-22T22:29:22.873Z,10.80
2022-09-22T22:31:50.419Z,10.80
2022-09-22T22:34:19.598Z,10.70
2022-09-22T22:36:47.050Z,10.70
2022-09-22T22:39:13.901Z,10.60
2022-09-22T22:41:41.447Z,10.60
2022-09-22T22:44:08.880Z,10.60
2022-09-22T22:46:35.935Z,10.60
2022-09-22T22:49:03.074Z,10.60
2022-09-22T22:51:30.351Z,10.60
2022-09-22T22:53:57.239Z,10.50
2022-09-22T22:56:27.191Z,10.50
2022-09-22T22:58:54.300Z,10.50
2022-09-22T23:01:25.095Z,10.40
2022-09-22T23:03:57.715Z,10.50
2022-09-22T23:06:30.486Z,10.40
2022-09-22T23:08:57.455Z,10.40
2022-09-22T23:11:30.231Z,10.30
2022-09-22T23:14:01.980Z,10.30
2022-09-22T23:16:37.350Z,10.30
2022-09-22T23:19:09.372Z,10.30
2022-09-22T23:21:37.093Z,10.30
2022-09-22T23:24:05.443Z,10.30
2022-09-22T23:26:32.517Z,10.40
2022-09-22T23:28:59.575Z,10.30
2022-09-22T23:31:26.907Z,10.30
2022-09-22T23:33:54.235Z,10.20
2022-09-22T23:36:27.023Z,10.20
2022-09-22T23:39:02.664Z,10.20
2022-09-22T23:41:30.743Z,10.20
2022-09-22T23:43:57.780Z,10.20
2022-09-22T23:46:24.862Z,10.20
2022-09-22T23:48:52.293Z,10.30
2022-09-22T23:51:19.651Z,10.30
2022-09-22T23:53:46.604Z,10.20
2022-09-22T23:56:14.156Z,10.20
2022-09-22T23:58:41.027Z,10.10
